createdAt,value
2022-10-09T00:00:35.813Z,26.50
2022-10-09T00:03:25.096Z,26.46
2022-10-09T00:06:07.965Z,26.44
2022-10-09T00:08:56.114Z,26.36
2022-10-09T00:11:40.817Z,26.59
2022-10-09T00:14:29.087Z,26.38
2022-10-09T00:17:11.191Z,26.35
2022-10-09T00:20:06.660Z,26.46
2022-10-09T00:22:55.836Z,26.59
2022-10-09T00:25:44.794Z,26.59
2022-10-09T00:28:29.322Z,26.67
2022-10-09T00:31:22.882Z,26.58
2022-10-09T00:34:04.975Z,26.55
2022-10-09T00:36:53.871Z,26.45
2022-10-09T00:39:43.079Z,26.52
2022-10-09T00:42:24.815Z,26.48
2022-10-09T00:45:07.747Z,26.32
2022-10-09T00:48:03.778Z,26.00
2022-10-09T00:50:59.576Z,26.17
2022-10-09T00:53:48.833Z,26.40
2022-10-09T00:56:38.234Z,26.29
2022-10-09T00:59:21.783Z,26.44
2022-10-09T01:02:10.773Z,26.41
2022-10-09T01:04:59.862Z,26.39
2022-10-09T01:08:00.167Z,26.50
2022-10-09T01:11:06.834Z,26.57
2022-10-09T01:13:59.462Z,26.62
2022-10-09T01:16:56.792Z,26.74
2022-10-09T01:20:28.653Z,26.73
2022-10-09T01:23:41.103Z,26.58
2022-10-09T01:26:32.073Z,26.53
2022-10-09T01:29:23.810Z,26.83
2022-10-09T01:32:14.789Z,26.94
2022-10-09T01:35:06.760Z,26.80
2022-10-09T01:37:51.793Z,26.67
2022-10-09T01:40:34.230Z,26.93
2022-10-09T01:43:22.879Z,26.52
2022-10-09T01:46:31.160Z,26.78
2022-10-09T01:49:45.883Z,26.95
2022-10-09T01:52:53.233Z,27.02
2022-10-09T01:55:54.792Z,27.25
2022-10-09T01:59:01.860Z,26.97
2022-10-09T02:01:52.203Z,27.14
2022-10-09T02:04:35.799Z,26.89
2022-10-09T02:07:26.091Z,26.98
2022-10-09T02:10:11.804Z,26.83
2022-10-09T02:13:08.791Z,27.15
2022-10-09T02:16:09.127Z,27.35
2022-10-09T02:19:09.841Z,27.49
2022-10-09T02:22:08.072Z,27.44
2022-10-09T02:24:52.223Z,27.57
2022-10-09T02:27:42.063Z,27.30
2022-10-09T02:30:25.804Z,27.28
2022-10-09T02:33:14.723Z,27.44
2022-10-09T02:36:03.848Z,27.45
2022-10-09T02:38:52.093Z,27.65
2022-10-09T02:41:35.863Z,27.65
2022-10-09T02:44:24.085Z,27.44
2022-10-09T02:47:06.868Z,27.62
2022-10-09T02:49:55.168Z,27.41
2022-10-09T02:52:37.806Z,27.49
2022-10-09T02:55:26.056Z,27.79
2022-10-09T02:58:08.837Z,27.43
2022-10-09T03:00:59.127Z,27.67
2022-10-09T03:03:41.783Z,27.73
2022-10-09T03:06:26.745Z,27.75
2022-10-09T03:09:15.787Z,27.85
2022-10-09T03:12:04.103Z,28.20
2022-10-09T03:14:46.790Z,28.05
2022-10-09T03:17:35.049Z,28.04
2022-10-09T03:20:24.789Z,28.33
2022-10-09T03:23:07.071Z,28.26
2022-10-09T03:26:11.797Z,28.44
2022-10-09T03:29:03.788Z,28.54
2022-10-09T03:31:53.641Z,28.64
2022-10-09T03:34:43.194Z,28.72
2022-10-09T03:37:31.067Z,28.33
2022-10-09T03:40:13.856Z,28.22
2022-10-09T03:43:02.110Z,28.73
2022-10-09T03:45:48.785Z,28.89
2022-10-09T03:48:37.795Z,28.82
2022-10-09T03:51:20.103Z,28.73
2022-10-09T03:54:08.783Z,29.13
2022-10-09T03:56:51.068Z,29.07
2022-10-09T03:59:39.975Z,28.54
2022-10-09T04:02:22.104Z,29.16
2022-10-09T04:05:10.859Z,28.96
2022-10-09T04:07:53.198Z,29.20
2022-10-09T04:10:41.849Z,29.78
2022-10-09T04:13:24.081Z,29.30
2022-10-09T04:16:12.966Z,29.95
2022-10-09T04:18:55.553Z,30.08
2022-10-09T04:21:50.778Z,29.86
2022-10-09T04:24:32.977Z,29.82
2022-10-09T04:27:22.836Z,30.33
2022-10-09T04:30:12.699Z,30.49
2022-10-09T04:33:01.806Z,30.67
2022-10-09T04:35:52.697Z,30.21
2022-10-09T04:38:41.786Z,30.46
2022-10-09T04:41:23.955Z,30.84
2022-10-09T04:44:15.811Z,30.95
2022-10-09T04:46:57.956Z,30.46
2022-10-09T04:49:48.864Z,30.78
2022-10-09T04:52:41.063Z,31.18
2022-10-09T04:55:33.174Z,30.99
2022-10-09T04:58:22.340Z,31.47
2022-10-09T05:01:03.860Z,31.55
2022-10-09T05:03:53.108Z,31.38
2022-10-09T05:06:35.995Z,31.97
2022-10-09T05:09:25.019Z,31.79
2022-10-09T05:12:09.104Z,31.95
2022-10-09T05:14:57.828Z,31.61
2022-10-09T05:17:41.228Z,32.01
2022-10-09T05:20:36.832Z,31.63
2022-10-09T05:23:26.240Z,32.02
2022-10-09T05:26:11.779Z,31.61
2022-10-09T05:29:01.824Z,31.38
2022-10-09T05:31:49.146Z,31.54
2022-10-09T05:34:38.830Z,32.52
2022-10-09T05:37:22.856Z,32.35
2022-10-09T05:40:11.779Z,31.84
2022-10-09T05:42:57.191Z,32.31
2022-10-09T05:45:45.832Z,31.89
2022-10-09T05:48:29.070Z,32.37
2022-10-09T05:51:26.782Z,32.21
2022-10-09T05:54:09.091Z,32.53
2022-10-09T05:56:57.828Z,32.18
2022-10-09T05:59:40.058Z,31.60
2022-10-09T06:02:28.887Z,32.30
2022-10-09T06:05:11.220Z,32.62
2022-10-09T06:07:59.796Z,32.69
2022-10-09T06:10:42.131Z,32.53
2022-10-09T06:13:30.758Z,32.55
2022-10-09T06:16:20.829Z,32.15
2022-10-09T06:19:10.247Z,31.53
2022-10-09T06:21:59.780Z,32.35
2022-10-09T06:24:42.202Z,32.14
2022-10-09T06:27:30.803Z,32.20
2022-10-09T06:30:13.200Z,32.41
2022-10-09T06:33:01.779Z,32.62
2022-10-09T06:35:44.121Z,32.47
2022-10-09T06:38:35.830Z,32.32
2022-10-09T06:41:23.132Z,32.76
2022-10-09T06:44:16.864Z,32.93
2022-10-09T06:46:59.240Z,32.59
2022-10-09T06:49:47.778Z,32.53
2022-10-09T06:52:30.027Z,32.58
2022-10-09T06:55:18.779Z,32.62
2022-10-09T06:58:01.117Z,32.55
2022-10-09T07:00:49.831Z,32.70
2022-10-09T07:03:32.309Z,32.32
2022-10-09T07:06:26.797Z,32.51
2022-10-09T07:09:13.185Z,32.34
2022-10-09T07:12:01.781Z,32.73
2022-10-09T07:14:44.209Z,32.59
2022-10-09T07:17:34.761Z,32.57
2022-10-09T07:20:30.833Z,32.26
2022-10-09T07:23:19.223Z,32.18
2022-10-09T07:26:01.793Z,32.23
2022-10-09T07:28:45.036Z,32.05
2022-10-09T07:31:33.777Z,32.33
2022-10-09T07:34:23.058Z,32.25
2022-10-09T07:37:05.830Z,32.36
2022-10-09T07:39:54.068Z,32.15
2022-10-09T07:42:36.842Z,32.49
2022-10-09T07:45:32.166Z,31.47
2022-10-09T07:48:20.776Z,32.09
2022-10-09T07:51:39.880Z,31.64
2022-10-09T07:54:22.257Z,32.05
2022-10-09T07:57:10.769Z,32.03
2022-10-09T07:59:53.198Z,32.58
2022-10-09T08:02:42.219Z,32.60
2022-10-09T08:05:25.214Z,31.58
2022-10-09T08:08:14.790Z,31.83
2022-10-09T08:10:57.161Z,31.94
2022-10-09T08:13:46.889Z,32.34
2022-10-09T08:16:31.277Z,32.07
2022-10-09T08:19:19.868Z,31.96
2022-10-09T08:22:14.636Z,31.69
2022-10-09T08:25:03.786Z,32.06
2022-10-09T08:27:46.055Z,31.99
2022-10-09T08:30:34.880Z,32.00
2022-10-09T08:33:21.261Z,31.67
2022-10-09T08:36:15.834Z,31.26
2022-10-09T08:38:59.116Z,31.59
2022-10-09T08:41:49.756Z,32.01
2022-10-09T08:44:50.039Z,31.84
2022-10-09T08:47:44.845Z,31.73
2022-10-09T08:50:30.079Z,31.54
2022-10-09T08:53:46.792Z,32.20
2022-10-09T08:56:31.123Z,31.73
2022-10-09T08:59:20.798Z,32.10
2022-10-09T09:02:23.116Z,32.31
2022-10-09T09:05:21.790Z,32.38
2022-10-09T09:08:18.781Z,32.36
2022-10-09T09:11:24.085Z,32.54
2022-10-09T09:14:25.167Z,32.20
2022-10-09T09:17:22.058Z,32.45
2022-10-09T09:20:09.769Z,32.44
2022-10-09T09:22:59.068Z,32.42
2022-10-09T09:25:47.783Z,32.55
2022-10-09T09:28:43.206Z,32.39
2022-10-09T09:31:36.893Z,31.91
2022-10-09T09:34:47.103Z,32.44
2022-10-09T09:37:28.845Z,32.38
2022-10-09T09:40:36.091Z,32.06
2022-10-09T09:43:26.880Z,32.24
2022-10-09T09:46:23.118Z,32.42
2022-10-09T09:49:09.364Z,32.53
2022-10-09T09:51:59.791Z,32.43
2022-10-09T09:54:43.537Z,32.44
2022-10-09T09:57:45.858Z,32.62
2022-10-09T10:00:31.162Z,32.03
2022-10-09T10:03:25.856Z,32.10
2022-10-09T10:06:09.061Z,32.36
2022-10-09T10:09:07.792Z,32.00
2022-10-09T10:12:04.540Z,32.32
2022-10-09T10:14:59.143Z,32.41
2022-10-09T10:17:45.072Z,32.14
2022-10-09T10:20:34.774Z,32.30
2022-10-09T10:23:50.146Z,32.27
2022-10-09T10:26:43.834Z,31.88
2022-10-09T10:29:46.063Z,31.61
2022-10-09T10:32:57.762Z,32.00
2022-10-09T10:35:47.070Z,32.16
2022-10-09T10:38:35.826Z,32.26
2022-10-09T10:41:32.259Z,32.16
2022-10-09T10:44:46.838Z,32.01
2022-10-09T10:47:37.094Z,32.17
2022-10-09T10:50:28.844Z,32.01
2022-10-09T10:53:32.075Z,32.04
2022-10-09T10:56:39.832Z,31.95
2022-10-09T10:59:49.054Z,31.77
2022-10-09T11:02:58.850Z,31.70
2022-10-09T11:06:03.096Z,31.57
2022-10-09T11:09:13.848Z,31.50
2022-10-09T11:12:12.587Z,31.74
2022-10-09T11:15:18.118Z,31.49
2022-10-09T11:18:25.168Z,31.39
2022-10-09T11:21:25.774Z,31.33
2022-10-09T11:24:29.251Z,31.60
2022-10-09T11:27:24.853Z,31.53
2022-10-09T11:30:23.272Z,31.63
2022-10-09T11:33:18.796Z,31.60
2022-10-09T11:36:19.730Z,31.52
2022-10-09T11:39:25.778Z,31.51
2022-10-09T11:42:11.371Z,31.49
2022-10-09T11:45:04.837Z,31.35
2022-10-09T11:48:13.179Z,31.31
2022-10-09T11:51:29.768Z,31.26
2022-10-09T11:54:18.686Z,31.18
2022-10-09T11:57:15.658Z,31.16
2022-10-09T12:00:08.193Z,31.20
2022-10-09T12:02:58.828Z,31.00
2022-10-09T12:05:48.386Z,30.96
2022-10-09T12:08:45.830Z,30.90
2022-10-09T12:11:35.098Z,30.82
2022-10-09T12:14:20.346Z,30.93
2022-10-09T12:17:10.045Z,30.85
2022-10-09T12:19:53.856Z,30.72
2022-10-09T12:23:14.298Z,30.67
2022-10-09T12:26:05.821Z,30.77
2022-10-09T12:29:03.085Z,30.64
2022-10-09T12:31:52.797Z,30.52
2022-10-09T12:34:45.103Z,30.56
2022-10-09T12:37:43.853Z,30.60
2022-10-09T12:40:34.131Z,30.54
2022-10-09T12:43:26.804Z,30.51
2022-10-09T12:46:10.276Z,30.47
2022-10-09T12:48:58.810Z,30.47
2022-10-09T12:51:42.211Z,30.32
2022-10-09T12:54:34.840Z,30.32
2022-10-09T12:57:24.085Z,30.25
2022-10-09T13:00:21.774Z,30.20
2022-10-09T13:03:04.256Z,30.19
2022-10-09T13:05:52.847Z,30.30
2022-10-09T13:08:39.127Z,29.98
2022-10-09T13:11:33.850Z,30.10
2022-10-09T13:14:41.158Z,30.12
2022-10-09T13:17:41.776Z,30.10
2022-10-09T13:20:24.116Z,30.01
2022-10-09T13:23:15.102Z,30.15
2022-10-09T13:25:59.968Z,30.14
2022-10-09T13:28:51.802Z,30.01
2022-10-09T13:31:34.889Z,30.01
2022-10-09T13:34:23.839Z,30.12
2022-10-09T13:37:06.111Z,30.02
2022-10-09T13:39:55.767Z,29.92
2022-10-09T13:42:43.105Z,29.92
2022-10-09T13:45:31.768Z,29.80
2022-10-09T13:48:14.048Z,29.85
2022-10-09T13:51:02.775Z,29.80
2022-10-09T13:53:45.028Z,29.79
2022-10-09T13:56:33.839Z,29.77
2022-10-09T13:59:16.302Z,29.77
2022-10-09T14:02:04.837Z,29.74
2022-10-09T14:04:47.127Z,29.69
2022-10-09T14:07:35.758Z,29.72
2022-10-09T14:10:24.770Z,29.71
2022-10-09T14:13:15.574Z,29.63
2022-10-09T14:15:59.761Z,29.64
2022-10-09T14:18:48.842Z,29.67
2022-10-09T14:21:38.103Z,29.65
2022-10-09T14:24:22.126Z,29.59
2022-10-09T14:27:10.093Z,29.63
2022-10-09T14:29:55.278Z,29.58
2022-10-09T14:32:38.934Z,29.55
2022-10-09T14:35:27.758Z,29.53
2022-10-09T14:38:17.031Z,29.46
2022-10-09T14:40:59.755Z,29.50
2022-10-09T14:43:55.822Z,29.51
2022-10-09T14:46:45.032Z,29.71
2022-10-09T14:49:27.835Z,29.71
2022-10-09T14:52:09.998Z,29.54
2022-10-09T14:54:58.781Z,29.49
2022-10-09T14:57:47.821Z,29.44
2022-10-09T15:00:30.203Z,29.42
2022-10-09T15:03:18.826Z,29.46
2022-10-09T15:06:13.350Z,29.50
2022-10-09T15:09:09.789Z,29.55
2022-10-09T15:11:59.802Z,29.53
2022-10-09T15:14:49.230Z,29.77
2022-10-09T15:17:30.762Z,29.63
2022-10-09T15:20:19.039Z,29.65
2022-10-09T15:23:07.811Z,29.53
2022-10-09T15:25:57.074Z,29.69
2022-10-09T15:28:46.820Z,29.90
2022-10-09T15:31:33.250Z,29.79
2022-10-09T15:34:26.121Z,29.73
2022-10-09T15:37:08.140Z,29.70
2022-10-09T15:39:56.817Z,29.58
2022-10-09T15:42:42.401Z,29.64
2022-10-09T15:45:31.771Z,29.68
2022-10-09T15:48:14.088Z,29.61
2022-10-09T15:51:02.843Z,29.52
2022-10-09T15:53:45.209Z,29.48
2022-10-09T15:56:38.785Z,29.40
2022-10-09T15:59:29.812Z,29.21
2022-10-09T16:02:20.192Z,29.30
2022-10-09T16:05:02.843Z,29.34
2022-10-09T16:07:51.104Z,29.33
2022-10-09T16:10:33.902Z,29.34
2022-10-09T16:13:16.347Z,29.34
2022-10-09T16:16:04.767Z,29.25
2022-10-09T16:18:47.496Z,29.12
2022-10-09T16:21:39.766Z,29.27
2022-10-09T16:24:28.825Z,29.25
2022-10-09T16:27:11.084Z,29.15
2022-10-09T16:29:59.809Z,29.36
2022-10-09T16:32:42.137Z,29.30
2022-10-09T16:35:31.082Z,29.32
2022-10-09T16:38:13.046Z,29.25
2022-10-09T16:41:02.514Z,29.21
2022-10-09T16:43:47.164Z,29.34
2022-10-09T16:46:39.890Z,29.33
2022-10-09T16:49:25.262Z,29.35
2022-10-09T16:52:13.848Z,29.36
2022-10-09T16:55:00.139Z,29.37
2022-10-09T16:57:49.996Z,29.40
2022-10-09T17:00:32.209Z,29.28
2022-10-09T17:03:20.875Z,29.30
2022-10-09T17:06:03.196Z,29.26
2022-10-09T17:08:51.839Z,29.35
2022-10-09T17:11:42.805Z,29.42
2022-10-09T17:14:31.830Z,29.41
2022-10-09T17:17:17.538Z,29.37
2022-10-09T17:20:06.771Z,29.30
2022-10-09T17:23:01.822Z,29.31
2022-10-09T17:25:45.190Z,29.20
2022-10-09T17:28:33.838Z,29.28
2022-10-09T17:31:26.168Z,29.33
2022-10-09T17:34:11.833Z,29.26
2022-10-09T17:37:01.215Z,29.28
2022-10-09T17:39:47.433Z,29.31
2022-10-09T17:42:38.567Z,29.30
2022-10-09T17:45:21.881Z,29.20
2022-10-09T17:48:11.223Z,29.17
2022-10-09T17:51:04.771Z,29.22
2022-10-09T17:53:54.230Z,29.16
2022-10-09T17:56:37.764Z,29.14
2022-10-09T17:59:27.347Z,29.01
2022-10-09T18:02:09.845Z,29.18
2022-10-09T18:04:59.444Z,29.11
2022-10-09T18:07:42.792Z,29.14
2022-10-09T18:10:32.113Z,29.21
2022-10-09T18:13:15.753Z,29.18
2022-10-09T18:16:07.764Z,29.24
2022-10-09T18:18:51.131Z,29.22
2022-10-09T18:21:39.762Z,29.17
2022-10-09T18:24:23.175Z,29.20
2022-10-09T18:27:11.826Z,29.14
2022-10-09T18:29:54.146Z,29.15
2022-10-09T18:32:42.834Z,29.20
2022-10-09T18:35:26.568Z,29.29
2022-10-09T18:38:17.826Z,29.14
2022-10-09T18:41:00.600Z,29.27
2022-10-09T18:43:50.107Z,29.34
2022-10-09T18:46:35.131Z,29.37
2022-10-09T18:49:26.769Z,29.36
2022-10-09T18:52:11.155Z,29.32
2022-10-09T18:55:01.810Z,29.14
2022-10-09T18:57:47.102Z,29.22
2022-10-09T19:00:35.837Z,29.50
2022-10-09T19:03:24.762Z,29.25
2022-10-09T19:06:13.743Z,29.34
2022-10-09T19:09:05.824Z,29.55
2022-10-09T19:11:48.184Z,29.45
2022-10-09T19:14:36.852Z,29.33
2022-10-09T19:17:26.180Z,29.36
2022-10-09T19:20:08.718Z,29.32
2022-10-09T19:22:51.064Z,29.43
2022-10-09T19:25:39.822Z,29.22
2022-10-09T19:28:24.113Z,29.19
2022-10-09T19:31:14.820Z,29.15
2022-10-09T19:34:03.066Z,29.32
2022-10-09T19:36:45.748Z,29.33
2022-10-09T19:39:28.949Z,29.34
2022-10-09T19:42:17.817Z,29.15
2022-10-09T19:45:06.057Z,29.07
2022-10-09T19:47:53.515Z,29.12
2022-10-09T19:50:43.112Z,29.23
2022-10-09T19:53:25.123Z,29.22
2022-10-09T19:56:21.728Z,28.99
2022-10-09T19:59:05.199Z,28.86
2022-10-09T20:01:57.394Z,29.01
2022-10-09T20:04:39.739Z,29.12
2022-10-09T20:07:22.052Z,29.01
2022-10-09T20:10:10.735Z,29.04
2022-10-09T20:12:59.819Z,29.20
2022-10-09T20:15:50.041Z,29.03
2022-10-09T20:18:33.752Z,29.15
2022-10-09T20:21:19.211Z,28.66
2022-10-09T20:24:10.815Z,28.66
2022-10-09T20:26:59.062Z,28.48
2022-10-09T20:29:41.840Z,28.45
2022-10-09T20:32:31.435Z,28.52
2022-10-09T20:35:14.826Z,28.66
2022-10-09T20:38:03.037Z,28.44
2022-10-09T20:40:44.767Z,28.20
2022-10-09T20:43:26.927Z,28.66
2022-10-09T20:46:23.758Z,28.16
2022-10-09T20:49:12.719Z,28.23
2022-10-09T20:52:01.738Z,28.25
2022-10-09T20:54:43.948Z,27.73
2022-10-09T20:57:32.823Z,27.58
2022-10-09T21:00:22.020Z,27.91
2022-10-09T21:03:05.478Z,28.14
2022-10-09T21:05:57.051Z,28.41
2022-10-09T21:08:39.730Z,28.35
2022-10-09T21:11:22.280Z,28.20
2022-10-09T21:14:10.730Z,28.14
2022-10-09T21:16:59.008Z,27.71
2022-10-09T21:19:40.804Z,27.52
2022-10-09T21:22:30.069Z,27.45
2022-10-09T21:25:12.749Z,27.33
2022-10-09T21:28:01.156Z,27.51
2022-10-09T21:30:55.769Z,27.30
2022-10-09T21:33:38.413Z,27.32
2022-10-09T21:39:54.533Z,27.64
2022-10-09T21:42:39.149Z,27.22
2022-10-09T21:45:27.044Z,27.53
2022-10-09T21:48:08.713Z,27.32
2022-10-09T21:50:51.262Z,27.44
2022-10-09T21:53:40.051Z,27.71
2022-10-09T21:56:29.075Z,27.65
2022-10-09T21:59:11.802Z,27.36
2022-10-09T22:02:00.085Z,27.38
2022-10-09T22:04:59.736Z,27.23
2022-10-09T22:07:48.642Z,27.10
2022-10-09T22:10:37.668Z,27.40
2022-10-09T22:13:27.732Z,27.55
2022-10-09T22:16:18.642Z,27.54
2022-10-09T22:19:08.796Z,27.69
2022-10-09T22:21:57.991Z,27.47
2022-10-09T22:24:40.720Z,27.40
2022-10-09T22:27:29.731Z,27.25
2022-10-09T22:30:19.750Z,27.43
2022-10-09T22:33:14.579Z,27.28
2022-10-09T22:36:23.706Z,27.48
2022-10-09T22:39:08.123Z,27.14
2022-10-09T22:41:56.724Z,27.02
2022-10-09T22:44:39.027Z,27.05
2022-10-09T22:47:27.754Z,27.34
2022-10-09T22:50:10.066Z,27.01
2022-10-09T22:52:58.797Z,26.76
2022-10-09T22:55:40.990Z,26.91
2022-10-09T22:58:30.159Z,27.10
2022-10-09T23:01:26.101Z,27.09
2022-10-09T23:04:18.738Z,27.14
2022-10-09T23:07:04.052Z,26.76
2022-10-09T23:09:52.799Z,27.09
2022-10-09T23:12:35.006Z,27.05
2022-10-09T23:15:23.768Z,27.14
2022-10-09T23:18:06.018Z,27.16
2022-10-09T23:20:54.782Z,27.07
2022-10-09T23:23:37.012Z,27.12
2022-10-09T23:26:28.704Z,26.76
2022-10-09T23:29:16.510Z,26.99
2022-10-09T23:32:12.726Z,26.99
2022-10-09T23:35:01.762Z,27.03
2022-10-09T23:37:44.031Z,27.11
2022-10-09T23:40:32.761Z,26.86
2022-10-09T23:43:15.038Z,27.02
2022-10-09T23:46:05.725Z,26.44
2022-10-09T23:48:54.645Z,26.92
2022-10-09T23:51:43.769Z,26.91
2022-10-09T23:54:27.004Z,27.00
2022-10-09T23:57:15.725Z,27.08
2022-10-09T23:59:58.033Z,27.01
